Time;durP1;ratioP1;P1;durP2;ratioP2;P2;SDS_P1;SDS_P2;PMS_P1;PMS_P2;Temp;Humidity;BMP_temperature;BMP_pressure;BME280_temperature;BME280_humidity;BME280_pressure;Samples;Min_cycle;Max_cycle;Signal;HPM_P1;HPM_P2
2023/07/25 00:01:17;;;;;;;;;;;15.00;81.30;;;;;;5113055;28;19908;-31
2023/07/25 00:03:43;;;;;;;;;;;15.00;81.20;;;;;;5112994;28;20405;-25
2023/07/25 00:06:08;;;;;;;;;;;15.00;81.10;;;;;;5113140;28;20004;-29
2023/07/25 00:08:34;;;;;;;;;;;15.00;81.10;;;;;;5112934;28;19907;-26
2023/07/25 00:11:00;;;;;;;;;;;15.00;81.00;;;;;;5113171;28;19960;-27
2023/07/25 00:13:25;;;;;;;;;;;15.10;81.00;;;;;;5113126;28;19908;-31
2023/07/25 00:15:51;;;;;;;;;;;15.10;81.00;;;;;;5112598;28;20359;-26
2023/07/25 00:18:16;;;;;;;;;;;15.10;81.00;;;;;;5113149;28;19999;-27
2023/07/25 00:20:42;;;;;;;;;;;15.10;80.90;;;;;;5113034;28;19908;-26
2023/07/25 00:23:07;;;;;;;;;;;15.10;81.00;;;;;;5112634;28;19954;-26
2023/07/25 00:25:33;;;;;;;;;;;15.10;80.90;;;;;;5112425;28;19918;-25
2023/07/25 00:27:59;;;;;;;;;;;15.00;80.90;;;;;;5094342;28;19908;-28
2023/07/25 00:30:25;;;;;;;;;;;15.00;81.00;;;;;;5112675;28;19960;-25
2023/07/25 00:32:50;;;;;;;;;;;15.00;81.00;;;;;;5112929;28;19912;-26
2023/07/25 00:35:15;;;;;;;;;;;15.00;81.10;;;;;;5112531;28;20356;-25
2023/07/25 00:37:41;;;;;;;;;;;15.00;81.10;;;;;;5112826;28;19915;-35
2023/07/25 00:40:07;;;;;;;;;;;14.90;81.10;;;;;;5112568;28;20382;-31
2023/07/25 00:42:32;;;;;;;;;;;14.90;81.20;;;;;;5112602;28;19910;-27
2023/07/25 00:44:58;;;;;;;;;;;14.90;81.20;;;;;;5112452;28;19912;-27
2023/07/25 00:47:23;;;;;;;;;;;14.70;81.20;;;;;;5112402;28;19912;-25
2023/07/25 00:49:49;;;;;;;;;;;14.70;81.30;;;;;;5112354;28;19927;-31
2023/07/25 00:52:15;;;;;;;;;;;14.70;81.30;;;;;;5112416;28;19907;-24
2023/07/25 00:54:45;;;;;;;;;;;14.70;81.40;;;;;;5112267;28;19968;-25
2023/07/25 00:57:11;;;;;;;;;;;14.60;81.40;;;;;;5112332;28;19916;-25
2023/07/25 00:59:37;;;;;;;;;;;14.60;81.40;;;;;;5112350;28;19908;-27
2023/07/25 01:02:02;;;;;;;;;;;14.60;81.40;;;;;;5112311;28;19908;-27
2023/07/25 01:04:28;;;;;;;;;;;14.60;81.50;;;;;;5112337;28;19915;-27
2023/07/25 01:06:53;;;;;;;;;;;14.60;81.50;;;;;;5114889;28;19908;-26
2023/07/25 01:09:34;;;;;;;;;;;14.50;81.50;;;;;;5116635;28;19967;-32
2023/07/25 01:12:00;;;;;;;;;;;14.50;81.50;;;;;;5116602;28;19990;-29
2023/07/25 01:14:25;;;;;;;;;;;14.50;81.50;;;;;;5116253;28;19947;-29
2023/07/25 01:16:51;;;;;;;;;;;14.50;81.50;;;;;;5116455;28;19922;-24
2023/07/25 01:19:18;;;;;;;;;;;14.50;81.60;;;;;;5116167;28;19939;-26
2023/07/25 01:21:43;;;;;;;;;;;14.50;81.60;;;;;;5116092;28;20364;-30
2023/07/25 01:24:09;;;;;;;;;;;14.50;81.60;;;;;;5115932;28;19915;-28
2023/07/25 01:26:34;;;;;;;;;;;14.40;81.50;;;;;;5115862;28;19912;-25
2023/07/25 01:29:00;;;;;;;;;;;14.40;81.60;;;;;;5115967;28;20371;-25
2023/07/25 01:31:25;;;;;;;;;;;14.40;81.60;;;;;;5116261;28;19915;-25
2023/07/25 01:33:51;;;;;;;;;;;14.50;81.70;;;;;;5115941;28;19914;-27
2023/07/25 01:36:16;;;;;;;;;;;14.40;81.60;;;;;;5115954;28;20427;-25
2023/07/25 01:38:41;;;;;;;;;;;14.40;81.60;;;;;;5097631;28;19908;-26
2023/07/25 01:41:07;;;;;;;;;;;14.40;81.70;;;;;;5115804;28;19911;-27
2023/07/25 01:43:32;;;;;;;;;;;14.40;81.70;;;;;;5115621;28;19953;-26
2023/07/25 01:45:58;;;;;;;;;;;14.40;81.70;;;;;;5115667;28;19919;-26
2023/07/25 01:48:23;;;;;;;;;;;14.40;81.70;;;;;;5115632;28;19927;-24
2023/07/25 01:50:49;;;;;;;;;;;14.40;81.70;;;;;;5115518;28;19914;-26
2023/07/25 01:53:14;;;;;;;;;;;14.40;81.70;;;;;;5115383;28;20363;-26
2023/07/25 01:55:40;;;;;;;;;;;14.30;81.70;;;;;;5115450;28;19908;-27
2023/07/25 01:58:05;;;;;;;;;;;14.30;81.70;;;;;;5115801;28;19939;-25
2023/07/25 02:00:31;;;;;;;;;;;14.30;81.70;;;;;;5115321;28;20290;-25
2023/07/25 02:02:56;;;;;;;;;;;14.20;81.70;;;;;;5115679;28;19993;-28
2023/07/25 02:05:22;;;;;;;;;;;14.20;81.90;;;;;;5115202;28;20473;-26
2023/07/25 02:07:47;;;;;;;;;;;14.20;81.90;;;;;;5115572;28;19931;-27
2023/07/25 02:10:14;;;;;;;;;;;14.10;81.90;;;;;;5115158;28;20004;-26
2023/07/25 02:12:39;;;;;;;;;;;14.20;82.00;;;;;;5115354;28;20385;-29
2023/07/25 02:15:05;;;;;;;;;;;14.10;81.90;;;;;;5115315;28;19908;-33
2023/07/25 02:17:30;;;;;;;;;;;14.10;81.90;;;;;;5114610;28;20371;-28
2023/07/25 02:19:56;;;;;;;;;;;14.10;81.90;;;;;;5114973;28;20361;-27
2023/07/25 02:22:21;;;;;;;;;;;14.20;82.00;;;;;;5115161;28;20024;-27
2023/07/25 02:24:47;;;;;;;;;;;14.10;81.90;;;;;;5114810;28;19908;-25
2023/07/25 02:27:12;;;;;;;;;;;14.10;81.90;;;;;;5114819;28;19942;-25
2023/07/25 02:29:38;;;;;;;;;;;14.10;81.90;;;;;;5079542;28;19908;-26
2023/07/25 02:32:03;;;;;;;;;;;14.10;81.90;;;;;;5114834;28;19914;-25
2023/07/25 02:34:29;;;;;;;;;;;14.10;82.00;;;;;;5114624;28;19960;-26
2023/07/25 02:36:54;;;;;;;;;;;14.10;82.00;;;;;;5115008;28;20383;-25
2023/07/25 02:39:20;;;;;;;;;;;14.00;82.00;;;;;;5096262;28;20113;-30
2023/07/25 02:41:45;;;;;;;;;;;14.00;82.00;;;;;;5114964;28;20408;-26
2023/07/25 02:44:11;;;;;;;;;;;14.00;82.00;;;;;;5096348;28;20279;-28
2023/07/25 02:46:36;;;;;;;;;;;14.00;82.10;;;;;;5114662;28;19911;-25
2023/07/25 02:49:02;;;;;;;;;;;14.00;82.10;;;;;;5096021;28;19920;-29
2023/07/25 02:51:27;;;;;;;;;;;13.90;82.10;;;;;;5114774;28;19914;-25
2023/07/25 02:53:53;;;;;;;;;;;13.90;82.10;;;;;;5114307;28;20006;-29
2023/07/25 02:56:20;;;;;;;;;;;13.90;82.20;;;;;;5114141;28;19984;-28
2023/07/25 02:58:45;;;;;;;;;;;13.90;82.20;;;;;;5114387;28;19961;-25
2023/07/25 03:01:10;;;;;;;;;;;13.90;82.20;;;;;;5114095;28;20295;-25
2023/07/25 03:03:36;;;;;;;;;;;13.90;82.20;;;;;;5114401;28;19908;-26
2023/07/25 03:06:01;;;;;;;;;;;13.80;82.20;;;;;;5114331;28;19938;-26
2023/07/25 03:08:27;;;;;;;;;;;13.80;82.20;;;;;;5114219;28;20364;-27
2023/07/25 03:10:52;;;;;;;;;;;13.80;82.30;;;;;;5113872;28;20355;-27
2023/07/25 03:13:18;;;;;;;;;;;13.80;82.30;;;;;;5114311;28;20038;-27
2023/07/25 03:15:43;;;;;;;;;;;13.80;82.30;;;;;;5113818;28;19907;-29
2023/07/25 03:18:09;;;;;;;;;;;13.80;82.30;;;;;;5114212;28;19908;-27
2023/07/25 03:20:34;;;;;;;;;;;13.80;82.30;;;;;;5095570;28;19955;-25
2023/07/25 03:23:00;;;;;;;;;;;13.80;82.30;;;;;;5113807;28;19912;-25
2023/07/25 03:25:25;;;;;;;;;;;13.80;82.40;;;;;;5113686;28;20004;-25
2023/07/25 03:27:51;;;;;;;;;;;13.80;82.30;;;;;;5113434;28;19908;-26
2023/07/25 03:30:17;;;;;;;;;;;13.80;82.40;;;;;;5113389;28;19914;-25
2023/07/25 03:32:42;;;;;;;;;;;13.80;82.30;;;;;;5113774;28;20254;-26
2023/07/25 03:35:08;;;;;;;;;;;13.80;82.30;;;;;;5095327;28;19908;-26
2023/07/25 03:37:33;;;;;;;;;;;13.80;82.20;;;;;;5113378;28;19908;-28
2023/07/25 03:39:59;;;;;;;;;;;13.80;82.20;;;;;;5113316;28;19907;-25
2023/07/25 03:42:24;;;;;;;;;;;13.80;82.20;;;;;;5113273;28;20065;-25
2023/07/25 03:44:50;;;;;;;;;;;13.80;82.20;;;;;;5113365;28;19916;-29
2023/07/25 03:47:16;;;;;;;;;;;13.80;82.20;;;;;;5094982;28;19954;-24
2023/07/25 03:49:41;;;;;;;;;;;13.80;82.20;;;;;;5112941;28;19920;-26
2023/07/25 03:52:07;;;;;;;;;;;13.80;82.20;;;;;;5113506;28;19908;-25
2023/07/25 03:54:33;;;;;;;;;;;13.80;82.20;;;;;;5113411;28;19914;-26
2023/07/25 03:56:58;;;;;;;;;;;13.80;82.20;;;;;;5094969;28;19915;-27
2023/07/25 03:59:24;;;;;;;;;;;13.80;82.20;;;;;;5113044;28;20318;-34
2023/07/25 04:01:49;;;;;;;;;;;13.80;82.30;;;;;;5113108;28;19914;-27
2023/07/25 04:04:15;;;;;;;;;;;13.80;82.30;;;;;;5113007;28;19961;-28
2023/07/25 04:06:40;;;;;;;;;;;13.80;82.30;;;;;;5113133;28;20011;-25
2023/07/25 04:09:06;;;;;;;;;;;13.80;82.30;;;;;;5113250;28;20346;-26
2023/07/25 04:11:31;;;;;;;;;;;13.80;82.30;;;;;;5112868;28;20278;-26
2023/07/25 04:13:57;;;;;;;;;;;13.80;82.30;;;;;;5094672;28;19939;-26
2023/07/25 04:16:22;;;;;;;;;;;13.80;82.30;;;;;;5112847;28;20297;-25
2023/07/25 04:18:48;;;;;;;;;;;13.80;82.30;;;;;;5113101;28;19908;-26
2023/07/25 04:21:13;;;;;;;;;;;13.80;82.30;;;;;;5112686;28;19915;-27
2023/07/25 04:23:39;;;;;;;;;;;13.90;82.30;;;;;;5112971;28;19911;-25
2023/07/25 04:26:04;;;;;;;;;;;13.90;82.20;;;;;;5112496;28;19918;-26
2023/07/25 04:28:29;;;;;;;;;;;13.90;82.20;;;;;;5112956;28;19912;-27
2023/07/25 04:30:55;;;;;;;;;;;13.90;82.20;;;;;;5112646;28;20076;-25
2023/07/25 04:33:20;;;;;;;;;;;13.90;82.20;;;;;;5112629;28;19911;-32
2023/07/25 04:35:46;;;;;;;;;;;13.90;82.10;;;;;;5112689;28;19955;-25
2023/07/25 04:38:13;;;;;;;;;;;13.90;82.20;;;;;;5112801;28;20377;-26
2023/07/25 04:40:38;;;;;;;;;;;13.90;82.20;;;;;;5114822;28;19951;-25
2023/07/25 04:43:04;;;;;;;;;;;13.90;82.20;;;;;;5116847;28;19958;-26
2023/07/25 04:45:29;;;;;;;;;;;13.90;82.20;;;;;;5116600;28;19972;-24
2023/07/25 04:47:55;;;;;;;;;;;13.90;82.20;;;;;;5116763;28;19920;-32
2023/07/25 04:50:20;;;;;;;;;;;13.90;82.20;;;;;;5117056;28;20329;-30
2023/07/25 04:52:46;;;;;;;;;;;13.90;82.20;;;;;;5098388;28;19908;-27
2023/07/25 04:55:11;;;;;;;;;;;14.00;82.20;;;;;;5116557;28;19908;-26
2023/07/25 04:57:37;;;;;;;;;;;14.00;82.10;;;;;;5116511;28;19950;-25
2023/07/25 05:00:03;;;;;;;;;;;14.00;82.10;;;;;;5116766;28;19908;-25
2023/07/25 05:02:28;;;;;;;;;;;14.10;82.00;;;;;;5116728;28;19950;-26
2023/07/25 05:04:54;;;;;;;;;;;14.10;81.90;;;;;;5116652;28;20307;-26
2023/07/25 05:07:19;;;;;;;;;;;14.20;81.80;;;;;;5116793;28;19975;-25
2023/07/25 05:09:45;;;;;;;;;;;14.20;81.70;;;;;;5116212;28;19907;-27
2023/07/25 05:12:11;;;;;;;;;;;14.30;81.60;;;;;;5098030;28;19912;-26
2023/07/25 05:14:37;;;;;;;;;;;14.30;81.50;;;;;;5116529;28;19998;-27
2023/07/25 05:17:02;;;;;;;;;;;14.30;81.50;;;;;;5116237;28;19992;-27
2023/07/25 05:19:28;;;;;;;;;;;14.40;81.50;;;;;;5116050;28;19935;-25
2023/07/25 05:21:53;;;;;;;;;;;14.40;81.40;;;;;;5116151;28;19983;-26
2023/07/25 05:24:18;;;;;;;;;;;14.50;81.30;;;;;;5116259;28;19907;-25
2023/07/25 05:26:44;;;;;;;;;;;14.60;81.20;;;;;;5115964;28;19912;-26
2023/07/25 05:29:09;;;;;;;;;;;14.70;81.00;;;;;;5116113;28;20131;-27
2023/07/25 05:31:35;;;;;;;;;;;14.90;80.90;;;;;;5116156;28;20165;-27
2023/07/25 05:34:00;;;;;;;;;;;14.90;80.70;;;;;;5115971;28;20009;-27
2023/07/25 05:36:26;;;;;;;;;;;15.00;80.70;;;;;;5116025;28;19969;-25
2023/07/25 05:38:51;;;;;;;;;;;15.10;80.60;;;;;;5115780;28;19968;-28
2023/07/25 05:41:17;;;;;;;;;;;15.10;80.40;;;;;;5115909;28;19908;-25
2023/07/25 05:43:43;;;;;;;;;;;15.10;80.30;;;;;;5115963;28;19908;-26
2023/07/25 05:46:08;;;;;;;;;;;15.10;80.30;;;;;;5115449;28;19919;-25
2023/07/25 05:48:34;;;;;;;;;;;15.20;80.30;;;;;;5115558;28;19927;-25
2023/07/25 05:50:59;;;;;;;;;;;15.20;80.20;;;;;;5096779;28;19914;-28
2023/07/25 05:53:25;;;;;;;;;;;15.30;80.10;;;;;;5114955;28;19908;-30
2023/07/25 05:55:50;;;;;;;;;;;15.30;80.00;;;;;;5115395;28;19908;-28
2023/07/25 05:58:16;;;;;;;;;;;15.30;80.00;;;;;;5115386;28;19965;-26
2023/07/25 06:00:45;;;;;;;;;;;15.30;79.90;;;;;;5115575;28;19917;-28
2023/07/25 06:03:12;;;;;;;;;;;15.40;79.80;;;;;;5115262;28;19969;-26
2023/07/25 06:05:38;;;;;;;;;;;15.30;80.00;;;;;;5115160;28;20360;-36
2023/07/25 06:08:04;;;;;;;;;;;15.20;79.80;;;;;;5115197;28;19915;-25
2023/07/25 06:10:29;;;;;;;;;;;15.10;80.00;;;;;;5115016;28;19908;-26
2023/07/25 06:12:55;;;;;;;;;;;15.10;80.80;;;;;;5115108;28;19998;-28
2023/07/25 06:15:20;;;;;;;;;;;15.00;80.30;;;;;;5115454;28;19911;-27
2023/07/25 06:17:46;;;;;;;;;;;15.00;80.40;;;;;;5115082;28;19908;-26
2023/07/25 06:20:12;;;;;;;;;;;15.00;80.50;;;;;;5114960;28;20279;-26
2023/07/25 06:22:37;;;;;;;;;;;14.90;80.60;;;;;;5114908;28;19908;-27
2023/07/25 06:25:03;;;;;;;;;;;14.90;80.70;;;;;;5114776;28;20423;-27
2023/07/25 06:27:28;;;;;;;;;;;14.90;80.90;;;;;;5114786;28;19931;-27
2023/07/25 06:29:54;;;;;;;;;;;14.90;80.90;;;;;;5114678;28;19920;-28
2023/07/25 06:32:19;;;;;;;;;;;14.90;81.30;;;;;;5114733;28;19965;-24
2023/07/25 06:34:45;;;;;;;;;;;14.90;81.10;;;;;;5114646;28;19907;-29
2023/07/25 06:37:10;;;;;;;;;;;14.90;81.00;;;;;;5114787;28;19918;-26
2023/07/25 06:39:36;;;;;;;;;;;14.90;81.00;;;;;;5114528;28;19957;-26
2023/07/25 06:42:01;;;;;;;;;;;15.00;81.10;;;;;;5114547;28;19962;-29
2023/07/25 06:44:27;;;;;;;;;;;15.00;80.90;;;;;;5114398;28;19912;-27
2023/07/25 06:46:52;;;;;;;;;;;15.10;81.10;;;;;;5114252;28;19989;-26
2023/07/25 06:49:18;;;;;;;;;;;15.10;81.50;;;;;;5114938;28;19926;-25
2023/07/25 06:51:43;;;;;;;;;;;15.10;81.40;;;;;;5114095;28;19998;-26
2023/07/25 06:54:09;;;;;;;;;;;15.20;81.50;;;;;;5114222;28;19908;-26
2023/07/25 06:56:34;;;;;;;;;;;15.30;81.30;;;;;;5114194;28;19952;-26
2023/07/25 06:59:00;;;;;;;;;;;15.50;81.40;;;;;;5114109;28;20310;-24
2023/07/25 07:01:27;;;;;;;;;;;15.60;81.30;;;;;;5114049;28;19998;-27
2023/07/25 07:03:56;;;;;;;;;;;15.60;80.80;;;;;;5114324;28;20279;-26
2023/07/25 07:06:21;;;;;;;;;;;15.70;81.10;;;;;;5113912;28;19919;-26
2023/07/25 07:08:47;;;;;;;;;;;15.70;80.70;;;;;;5114030;28;20363;-25
2023/07/25 07:11:12;;;;;;;;;;;15.70;80.50;;;;;;5113971;28;20006;-29
2023/07/25 07:13:38;;;;;;;;;;;15.70;80.50;;;;;;5113691;28;20044;-25
2023/07/25 07:16:03;;;;;;;;;;;15.70;80.50;;;;;;5112717;28;19995;-27
2023/07/25 07:18:29;;;;;;;;;;;15.80;80.60;;;;;;5113086;28;20279;-25
2023/07/25 07:20:54;;;;;;;;;;;15.70;80.50;;;;;;5113830;28;19909;-29
2023/07/25 07:23:20;;;;;;;;;;;15.80;80.50;;;;;;5114051;28;19991;-31
2023/07/25 07:25:45;;;;;;;;;;;15.80;80.40;;;;;;5113754;28;19911;-25
2023/07/25 07:28:11;;;;;;;;;;;15.90;80.30;;;;;;5113553;28;20447;-25
2023/07/25 07:30:37;;;;;;;;;;;16.00;80.00;;;;;;5113405;28;19915;-25
2023/07/25 07:33:02;;;;;;;;;;;16.10;79.60;;;;;;5113468;28;19968;-26
2023/07/25 07:35:28;;;;;;;;;;;16.10;79.70;;;;;;5113338;28;20386;-26
2023/07/25 07:37:53;;;;;;;;;;;16.10;79.60;;;;;;5113576;28;19914;-26
2023/07/25 07:40:19;;;;;;;;;;;16.10;79.20;;;;;;5113498;28;19908;-26
2023/07/25 07:42:44;;;;;;;;;;;16.20;79.00;;;;;;5113581;28;20345;-27
2023/07/25 07:45:10;;;;;;;;;;;16.20;79.00;;;;;;5113299;28;19916;-27
2023/07/25 07:47:35;;;;;;;;;;;16.20;79.00;;;;;;5112981;28;19908;-26
2023/07/25 07:50:01;;;;;;;;;;;16.30;78.90;;;;;;5113412;28;19999;-26
2023/07/25 07:52:26;;;;;;;;;;;16.30;79.00;;;;;;5113061;28;20360;-26
2023/07/25 07:54:52;;;;;;;;;;;16.40;78.10;;;;;;5113469;28;19915;-27
2023/07/25 07:57:17;;;;;;;;;;;16.40;78.30;;;;;;5113333;28;19908;-32
2023/07/25 07:59:43;;;;;;;;;;;16.50;77.80;;;;;;5113162;28;19907;-34
2023/07/25 08:02:09;;;;;;;;;;;16.60;77.90;;;;;;5112984;28;19912;-25
2023/07/25 08:04:34;;;;;;;;;;;16.70;77.80;;;;;;5113266;28;19914;-25
2023/07/25 08:07:00;;;;;;;;;;;16.80;77.60;;;;;;5113218;28;20274;-26
2023/07/25 08:09:25;;;;;;;;;;;16.90;77.60;;;;;;5094356;28;20327;-27
2023/07/25 08:11:51;;;;;;;;;;;17.00;77.20;;;;;;5112801;28;19908;-26
2023/07/25 08:14:16;;;;;;;;;;;17.10;76.60;;;;;;5112459;28;20286;-28
2023/07/25 08:16:42;;;;;;;;;;;17.10;76.70;;;;;;5113005;28;19998;-26
2023/07/25 08:19:07;;;;;;;;;;;17.20;76.30;;;;;;5112857;28;19908;-26
2023/07/25 08:21:33;;;;;;;;;;;17.20;76.20;;;;;;5112703;28;20334;-26
2023/07/25 08:23:58;;;;;;;;;;;17.30;76.20;;;;;;5112981;28;19914;-26
2023/07/25 08:26:24;;;;;;;;;;;17.40;75.80;;;;;;5112642;28;19912;-26
2023/07/25 08:28:49;;;;;;;;;;;17.50;72.80;;;;;;5112740;28;19954;-25
2023/07/25 08:31:15;;;;;;;;;;;17.50;72.00;;;;;;5112934;28;19908;-29
2023/07/25 08:33:42;;;;;;;;;;;17.60;72.00;;;;;;5112858;28;20267;-26
2023/07/25 08:36:08;;;;;;;;;;;17.60;72.50;;;;;;5112501;28;19915;-28
2023/07/25 08:38:33;;;;;;;;;;;17.60;72.00;;;;;;5112515;28;19907;-30
2023/07/25 08:41:10;;;;;;;;;;;17.70;71.70;;;;;;5112546;28;19994;-27
2023/07/25 08:43:39;;;;;;;;;;;17.80;71.90;;;;;;5112806;28;19964;-26
2023/07/25 08:46:08;;;;;;;;;;;17.90;71.90;;;;;;5112336;28;19912;-28
2023/07/25 08:48:37;;;;;;;;;;;18.00;71.90;;;;;;5112427;28;19919;-25
2023/07/25 08:51:05;;;;;;;;;;;18.20;72.00;;;;;;5112774;28;19908;-27
2023/07/25 08:53:31;;;;;;;;;;;18.20;71.70;;;;;;5112650;28;19916;-26
2023/07/25 08:55:58;;;;;;;;;;;18.20;71.50;;;;;;5112416;28;19908;-29
2023/07/25 08:58:24;;;;;;;;;;;18.20;72.00;;;;;;5112398;28;20231;-29
2023/07/25 09:00:50;;;;;;;;;;;18.10;72.10;;;;;;5112479;28;19958;-25
2023/07/25 09:03:16;;;;;;;;;;;18.00;72.20;;;;;;5112408;28;19943;-27
2023/07/25 09:05:42;;;;;;;;;;;18.00;72.00;;;;;;5093780;28;19912;-26
2023/07/25 09:08:07;;;;;;;;;;;18.00;72.20;;;;;;5112310;28;19915;-33
2023/07/25 09:10:33;;;;;;;;;;;18.00;72.20;;;;;;5112416;28;20006;-25
2023/07/25 09:12:58;;;;;;;;;;;18.00;72.40;;;;;;5112502;28;19911;-25
2023/07/25 09:15:24;;;;;;;;;;;18.00;72.20;;;;;;5112504;28;20397;-25
2023/07/25 09:17:52;;;;;;;;;;;18.00;72.10;;;;;;5112480;28;19908;-24
2023/07/25 09:20:17;;;;;;;;;;;18.00;71.20;;;;;;5112175;28;19930;-29
2023/07/25 09:22:45;;;;;;;;;;;17.90;72.00;;;;;;5112126;28;19907;-28
2023/07/25 09:25:13;;;;;;;;;;;17.90;72.10;;;;;;5112729;28;19916;-28
2023/07/25 09:27:39;;;;;;;;;;;17.90;71.60;;;;;;5114530;28;19915;-27
2023/07/25 09:30:10;;;;;;;;;;;17.80;70.50;;;;;;5115877;28;19908;-29
2023/07/25 09:32:36;;;;;;;;;;;17.90;70.70;;;;;;5116236;28;20024;-29
2023/07/25 09:35:05;;;;;;;;;;;17.90;70.40;;;;;;5116192;28;19994;-25
2023/07/25 09:37:31;;;;;;;;;;;18.00;68.00;;;;;;5115879;28;20404;-26
2023/07/25 09:39:57;;;;;;;;;;;18.10;69.70;;;;;;5097437;28;19907;-31
2023/07/25 09:42:23;;;;;;;;;;;18.20;69.30;;;;;;5116125;28;20275;-29
2023/07/25 09:44:51;;;;;;;;;;;18.30;68.80;;;;;;5115979;28;19908;-27
2023/07/25 09:47:21;;;;;;;;;;;18.50;66.50;;;;;;5115511;28;19908;-31
2023/07/25 09:49:47;;;;;;;;;;;18.60;66.70;;;;;;5115542;28;19927;-29
2023/07/25 09:52:12;;;;;;;;;;;18.80;67.80;;;;;;5115650;28;19908;-29
2023/07/25 09:54:38;;;;;;;;;;;18.80;65.70;;;;;;5115515;28;19957;-27
2023/07/25 09:57:03;;;;;;;;;;;18.80;65.20;;;;;;5115820;28;19908;-28
2023/07/25 09:59:29;;;;;;;;;;;18.80;66.40;;;;;;5115341;28;20348;-26
2023/07/25 10:01:55;;;;;;;;;;;18.90;66.80;;;;;;5115505;28;19908;-27
2023/07/25 10:04:22;;;;;;;;;;;19.10;67.10;;;;;;5115402;28;19934;-26
2023/07/25 10:06:48;;;;;;;;;;;19.20;66.90;;;;;;5115560;28;19947;-32
2023/07/25 10:09:14;;;;;;;;;;;19.30;66.20;;;;;;5115418;28;20440;-28
2023/07/25 10:11:40;;;;;;;;;;;19.30;66.20;;;;;;5115161;28;19911;-27
2023/07/25 10:14:06;;;;;;;;;;;19.20;65.70;;;;;;5115440;28;19908;-26
2023/07/25 10:16:32;;;;;;;;;;;19.20;63.70;;;;;;5115148;28;19908;-34
2023/07/25 10:18:58;;;;;;;;;;;19.30;63.70;;;;;;5115103;28;20359;-27
2023/07/25 10:21:27;;;;;;;;;;;19.30;63.20;;;;;;5114999;28;19934;-26
2023/07/25 10:23:58;;;;;;;;;;;19.40;59.90;;;;;;5115599;28;19947;-29
2023/07/25 10:26:23;;;;;;;;;;;19.40;62.20;;;;;;5114746;28;19947;-30
2023/07/25 10:28:49;;;;;;;;;;;19.50;62.80;;;;;;5115132;28;19950;-30
2023/07/25 10:31:22;;;;;;;;;;;19.50;59.00;;;;;;5114917;28;20282;-28
2023/07/25 10:33:55;;;;;;;;;;;19.50;60.90;;;;;;5114828;28;19955;-31
2023/07/25 10:36:22;;;;;;;;;;;19.30;60.20;;;;;;5096236;28;19935;-26
2023/07/25 10:38:48;;;;;;;;;;;19.30;60.90;;;;;;5114668;28;19918;-28
2023/07/25 10:41:15;;;;;;;;;;;19.30;59.40;;;;;;5114555;28;19957;-28
2023/07/25 10:43:55;;;;;;;;;;;19.30;61.30;;;;;;5114843;28;19912;-25
2023/07/25 10:46:28;;;;;;;;;;;19.40;60.00;;;;;;5114722;28;19926;-26
2023/07/25 10:49:00;;;;;;;;;;;19.50;57.80;;;;;;5114626;28;19931;-28
2023/07/25 10:51:45;;;;;;;;;;;19.60;58.40;;;;;;5114476;28;19908;-28
2023/07/25 10:54:16;;;;;;;;;;;19.60;56.30;;;;;;5095978;28;20263;-26
2023/07/25 10:57:02;;;;;;;;;;;19.80;57.10;;;;;;5114697;28;19976;-28
2023/07/25 10:59:27;;;;;;;;;;;19.90;57.40;;;;;;5114116;28;19953;-26
2023/07/25 11:01:53;;;;;;;;;;;20.10;58.00;;;;;;5114285;28;20325;-27
2023/07/25 11:04:29;;;;;;;;;;;20.10;57.80;;;;;;5114183;28;19938;-26
2023/07/25 11:06:55;;;;;;;;;;;20.20;56.50;;;;;;5113993;28;19911;-27
2023/07/25 11:09:21;;;;;;;;;;;20.30;57.10;;;;;;5114466;28;19918;-27
2023/07/25 11:11:48;;;;;;;;;;;20.40;55.50;;;;;;5114383;28;19908;-27
2023/07/25 11:14:17;;;;;;;;;;;20.40;56.60;;;;;;5114036;28;19908;-27
2023/07/25 11:16:44;;;;;;;;;;;20.40;57.20;;;;;;5114016;28;19915;-24
2023/07/25 11:19:09;;;;;;;;;;;20.50;57.10;;;;;;5114022;28;20375;-25
2023/07/25 11:21:39;;;;;;;;;;;20.70;56.50;;;;;;5113911;28;19912;-28
2023/07/25 11:24:05;;;;;;;;;;;20.70;56.10;;;;;;5113880;28;19954;-26
2023/07/25 11:26:30;;;;;;;;;;;20.70;54.20;;;;;;5113642;28;19962;-27
2023/07/25 11:29:01;;;;;;;;;;;20.70;55.60;;;;;;5113720;28;19915;-32
2023/07/25 11:31:26;;;;;;;;;;;20.70;56.40;;;;;;5113586;28;19908;-28
2023/07/25 11:33:51;;;;;;;;;;;20.80;54.00;;;;;;5113665;28;20360;-25
2023/07/25 11:36:17;;;;;;;;;;;20.70;52.80;;;;;;5113516;28;19951;-27
2023/07/25 11:38:42;;;;;;;;;;;20.70;53.20;;;;;;5095381;28;19914;-27
2023/07/25 11:41:08;;;;;;;;;;;20.70;54.50;;;;;;5113843;28;20355;-26
2023/07/25 11:43:34;;;;;;;;;;;20.80;53.80;;;;;;5113548;28;19914;-28
2023/07/25 11:45:59;;;;;;;;;;;20.90;53.10;;;;;;5113340;28;19919;-28
2023/07/25 11:48:25;;;;;;;;;;;21.10;54.40;;;;;;5113202;28;20399;-24
2023/07/25 11:50:51;;;;;;;;;;;21.10;54.10;;;;;;5112637;28;19951;-30
2023/07/25 11:53:17;;;;;;;;;;;21.20;54.00;;;;;;5113301;28;19957;-25
2023/07/25 11:55:44;;;;;;;;;;;21.10;53.60;;;;;;5094889;28;20012;-26
2023/07/25 11:58:15;;;;;;;;;;;21.10;51.60;;;;;;5112649;28;20465;-26
2023/07/25 12:00:41;;;;;;;;;;;21.00;52.70;;;;;;5113203;28;19911;-25
2023/07/25 12:03:19;;;;;;;;;;;20.90;52.00;;;;;;5113060;28;20034;-29
2023/07/25 12:05:58;;;;;;;;;;;20.80;53.10;;;;;;5113108;28;19912;-30
2023/07/25 12:08:32;;;;;;;;;;;20.70;53.30;;;;;;5112957;28;20023;-30
2023/07/25 12:11:02;;;;;;;;;;;20.60;52.80;;;;;;5094647;28;19908;-29
2023/07/25 12:13:27;;;;;;;;;;;20.70;53.50;;;;;;5112828;28;19907;-28
2023/07/25 12:15:56;;;;;;;;;;;20.90;53.70;;;;;;5113290;28;20014;-29
2023/07/25 12:18:28;;;;;;;;;;;21.10;53.90;;;;;;5112841;28;20371;-30
2023/07/25 12:20:55;;;;;;;;;;;21.30;54.10;;;;;;5112726;28;19908;-31
2023/07/25 12:23:30;;;;;;;;;;;21.40;52.30;;;;;;5112663;28;20274;-30
2023/07/25 12:25:56;;;;;;;;;;;21.40;52.60;;;;;;5112708;28;20431;-29
2023/07/25 12:28:22;;;;;;;;;;;21.30;52.70;;;;;;5112769;28;20317;-28
2023/07/25 12:30:48;;;;;;;;;;;21.20;53.10;;;;;;5112697;28;19908;-29
2023/07/25 12:33:13;;;;;;;;;;;21.10;52.90;;;;;;5112721;28;19964;-29
2023/07/25 12:35:39;;;;;;;;;;;21.00;52.30;;;;;;5112633;28;19919;-30
2023/07/25 12:38:04;;;;;;;;;;;21.10;50.80;;;;;;5112694;28;19915;-32
2023/07/25 12:40:30;;;;;;;;;;;21.10;52.10;;;;;;5112679;28;19919;-30
2023/07/25 12:42:55;;;;;;;;;;;21.20;52.80;;;;;;5112674;28;20387;-30
2023/07/25 12:45:21;;;;;;;;;;;21.30;53.20;;;;;;5112553;28;19934;-31
2023/07/25 12:47:46;;;;;;;;;;;21.20;53.40;;;;;;5112416;28;19914;-32
2023/07/25 12:50:12;;;;;;;;;;;21.10;53.80;;;;;;5112434;28;19962;-36
2023/07/25 12:52:38;;;;;;;;;;;20.90;54.30;;;;;;5112451;28;19958;-31
2023/07/25 12:55:04;;;;;;;;;;;20.80;55.10;;;;;;5112491;28;19915;-36
2023/07/25 12:57:29;;;;;;;;;;;20.80;55.40;;;;;;5112517;28;20359;-30
2023/07/25 12:59:55;;;;;;;;;;;20.80;55.80;;;;;;5112294;28;19912;-31
2023/07/25 13:02:21;;;;;;;;;;;20.90;55.90;;;;;;5115814;28;19916;-28
2023/07/25 13:04:46;;;;;;;;;;;21.10;55.30;;;;;;5116429;28;19958;-33
2023/07/25 13:07:12;;;;;;;;;;;21.20;55.10;;;;;;5116639;28;20323;-34
2023/07/25 13:09:38;;;;;;;;;;;21.40;54.60;;;;;;5116341;28;20378;-34
2023/07/25 13:12:04;;;;;;;;;;;21.50;54.60;;;;;;5116421;28;19912;-29
2023/07/25 13:14:29;;;;;;;;;;;21.60;52.80;;;;;;5116247;28;19965;-31
2023/07/25 13:16:54;;;;;;;;;;;21.50;53.00;;;;;;5116369;28;20382;-34
2023/07/25 13:19:21;;;;;;;;;;;21.30;52.50;;;;;;5116185;28;19922;-30
2023/07/25 13:21:47;;;;;;;;;;;21.10;51.70;;;;;;5116219;28;20336;-29
2023/07/25 13:24:12;;;;;;;;;;;20.90;52.30;;;;;;5116143;28;20006;-31
2023/07/25 13:26:38;;;;;;;;;;;20.90;52.70;;;;;;5115895;28;20015;-30
2023/07/25 13:29:04;;;;;;;;;;;21.10;53.30;;;;;;5116003;28;19912;-41
2023/07/25 13:31:30;;;;;;;;;;;21.30;53.40;;;;;;5097517;28;19911;-36
2023/07/25 13:33:55;;;;;;;;;;;21.50;53.40;;;;;;5115961;28;20064;-36
2023/07/25 13:36:21;;;;;;;;;;;21.60;53.00;;;;;;5115836;28;20383;-33
2023/07/25 13:38:46;;;;;;;;;;;21.60;53.10;;;;;;5115918;28;19911;-32
2023/07/25 13:41:12;;;;;;;;;;;21.60;52.70;;;;;;5115715;28;19943;-32
2023/07/25 13:43:38;;;;;;;;;;;21.50;52.10;;;;;;5115724;28;20359;-31
2023/07/25 13:46:04;;;;;;;;;;;21.30;53.00;;;;;;5115701;28;19961;-37
2023/07/25 13:48:29;;;;;;;;;;;21.20;53.40;;;;;;5115506;28;20073;-33
2023/07/25 13:50:55;;;;;;;;;;;21.10;53.60;;;;;;5115593;28;20382;-35
2023/07/25 13:53:21;;;;;;;;;;;21.20;53.30;;;;;;5115508;28;19922;-36
2023/07/25 13:55:47;;;;;;;;;;;21.40;53.70;;;;;;5115762;28;19915;-32
2023/07/25 13:58:12;;;;;;;;;;;21.70;53.60;;;;;;5115779;28;20347;-35
2023/07/25 14:00:38;;;;;;;;;;;21.80;52.80;;;;;;5115675;28;20501;-30
2023/07/25 14:03:04;;;;;;;;;;;21.80;53.30;;;;;;5115317;28;19953;-31
2023/07/25 14:05:29;;;;;;;;;;;21.60;52.50;;;;;;5115333;28;19941;-32
2023/07/25 14:07:55;;;;;;;;;;;21.50;52.70;;;;;;5115272;28;19934;-39
2023/07/25 14:10:20;;;;;;;;;;;21.40;53.60;;;;;;5115035;28;20023;-33